Time;durP1;ratioP1;P1;durP2;ratioP2;P2;SDS_P1;SDS_P2;PMS_P1;PMS_P2;Temp;Humidity;BMP_temperature;BMP_pressure;BME280_temperature;BME280_humidity;BME280_pressure;Samples;Min_cycle;Max_cycle;Signal;HPM_P1;HPM_P2
2022/06/19 00:01:24;;;;;;;3.65;2.40;;;;;;;;;;4993669;28;20570;-73
2022/06/19 00:03:54;;;;;;;3.28;1.95;;;;;;;;;;4993727;28;20030;-72
2022/06/19 00:06:21;;;;;;;3.28;1.90;;;;;;;;;;4993964;28;20023;-72
2022/06/19 00:08:48;;;;;;;2.53;1.70;;;;;;;;;;4993746;28;20030;-71
2022/06/19 00:11:18;;;;;;;3.42;1.70;;;;;;;;;;4993664;28;20492;-71
2022/06/19 00:13:44;;;;;;;4.80;1.83;;;;;;;;;;4993768;28;20121;-72
2022/06/19 00:16:10;;;;;;;2.65;1.77;;;;;;;;;;4993059;28;20037;-74
2022/06/19 00:18:38;;;;;;;6.85;2.08;;;;;;;;;;4992174;28;20030;-72
2022/06/19 00:21:05;;;;;;;4.57;2.20;;;;;;;;;;4993532;28;20081;-73
2022/06/19 00:23:30;;;;;;;3.83;2.05;;;;;;;;;;4993462;28;20022;-73
2022/06/19 00:25:56;;;;;;;4.22;2.05;;;;;;;;;;4993602;28;20033;-74
2022/06/19 00:28:22;;;;;;;4.57;2.25;;;;;;;;;;4993314;28;20034;-74
2022/06/19 00:30:48;;;;;;;3.60;1.95;;;;;;;;;;4993570;28;20018;-73
2022/06/19 00:33:13;;;;;;;4.50;2.10;;;;;;;;;;4992230;28;20472;-72
2022/06/19 00:35:39;;;;;;;4.32;2.20;;;;;;;;;;4993435;28;20022;-73
2022/06/19 00:38:04;;;;;;;7.97;2.35;;;;;;;;;;4993376;28;20033;-73
2022/06/19 00:40:31;;;;;;;7.75;2.50;;;;;;;;;;4993369;28;20022;-71
2022/06/19 00:42:57;;;;;;;4.32;2.08;;;;;;;;;;4993238;28;20034;-74
2022/06/19 00:45:42;;;;;;;4.30;2.22;;;;;;;;;;4993217;28;20045;-66
2022/06/19 00:48:29;;;;;;;5.28;2.08;;;;;;;;;;4993476;28;20030;-72
2022/06/19 00:50:55;;;;;;;4.43;2.33;;;;;;;;;;4993421;28;20027;-72
2022/06/19 00:53:31;;;;;;;2.83;1.83;;;;;;;;;;4993220;28;20026;-65
2022/06/19 00:55:57;;;;;;;3.95;2.10;;;;;;;;;;4993397;28;20494;-71
2022/06/19 00:58:27;;;;;;;5.20;3.28;;;;;;;;;;4993025;28;20026;-65
2022/06/19 01:01:04;;;;;;;6.57;3.95;;;;;;;;;;4993351;28;20030;-67
2022/06/19 01:03:41;;;;;;;12.15;5.55;;;;;;;;;;4993344;28;20140;-65
2022/06/19 01:06:08;;;;;;;8.52;6.28;;;;;;;;;;4993235;28;20058;-65
2022/06/19 01:08:34;;;;;;;9.25;5.95;;;;;;;;;;4993255;28;20054;-66
2022/06/19 01:11:02;;;;;;;8.98;5.70;;;;;;;;;;4994950;28;20132;-65
2022/06/19 01:13:29;;;;;;;9.55;5.20;;;;;;;;;;4996677;28;20035;-73
2022/06/19 01:15:55;;;;;;;8.80;4.90;;;;;;;;;;4996826;28;20054;-70
2022/06/19 01:18:22;;;;;;;7.05;5.20;;;;;;;;;;4996519;28;20129;-65
2022/06/19 01:20:56;;;;;;;9.95;5.60;;;;;;;;;;4996846;28;20077;-73
2022/06/19 01:23:36;;;;;;;8.68;5.03;;;;;;;;;;4996866;28;20125;-69
2022/06/19 01:26:02;;;;;;;9.60;5.47;;;;;;;;;;4996688;28;20069;-74
2022/06/19 01:28:45;;;;;;;12.70;6.80;;;;;;;;;;4996470;28;20030;-72
2022/06/19 01:31:24;;;;;;;10.27;5.70;;;;;;;;;;4996868;28;20033;-74
2022/06/19 01:34:26;;;;;;;10.85;5.35;;;;;;;;;;4996682;28;20065;-67
2022/06/19 01:36:58;;;;;;;8.45;4.80;;;;;;;;;;4996367;28;20395;-65
2022/06/19 01:39:24;;;;;;;7.25;5.40;;;;;;;;;;4995301;28;20400;-65
2022/06/19 01:41:50;;;;;;;10.05;6.45;;;;;;;;;;4996198;28;20104;-65
2022/06/19 01:44:16;;;;;;;10.73;7.40;;;;;;;;;;4996530;28;20026;-67
2022/06/19 01:46:41;;;;;;;12.68;7.47;;;;;;;;;;4996418;28;20399;-73
2022/06/19 01:49:07;;;;;;;10.18;6.93;;;;;;;;;;4996387;28;20476;-73
2022/06/19 01:51:33;;;;;;;12.68;7.95;;;;;;;;;;4996133;28;20054;-70
2022/06/19 01:54:04;;;;;;;10.07;8.18;;;;;;;;;;4996096;28;20431;-73
2022/06/19 01:56:31;;;;;;;11.52;7.78;;;;;;;;;;4995913;28;20022;-66
2022/06/19 01:59:05;;;;;;;9.38;6.55;;;;;;;;;;4996034;28;20085;-65
2022/06/19 02:01:34;;;;;;;8.43;5.38;;;;;;;;;;4995922;28;20030;-73
2022/06/19 02:04:00;;;;;;;6.85;3.72;;;;;;;;;;4995951;28;20080;-70
2022/06/19 02:06:38;;;;;;;5.20;3.00;;;;;;;;;;4996174;28;20037;-66
2022/06/19 02:09:05;;;;;;;5.22;2.80;;;;;;;;;;4995903;28;20030;-66
2022/06/19 02:11:33;;;;;;;8.02;2.70;;;;;;;;;;4995526;28;20133;-65
2022/06/19 02:14:00;;;;;;;4.65;2.47;;;;;;;;;;4995713;28;20042;-67
2022/06/19 02:16:26;;;;;;;3.30;2.22;;;;;;;;;;4995558;28;20053;-66
2022/06/19 02:18:53;;;;;;;5.00;2.65;;;;;;;;;;4995680;28;20038;-64
2022/06/19 02:21:40;;;;;;;6.35;2.80;;;;;;;;;;4995073;28;20050;-67
2022/06/19 02:24:08;;;;;;;4.65;2.15;;;;;;;;;;4995555;28;20086;-74
2022/06/19 02:26:39;;;;;;;3.85;2.40;;;;;;;;;;4995363;28;20035;-65
2022/06/19 02:29:09;;;;;;;3.95;2.50;;;;;;;;;;4995555;28;20403;-65
2022/06/19 02:31:37;;;;;;;3.53;2.33;;;;;;;;;;4995566;28;20042;-69
2022/06/19 02:34:08;;;;;;;4.10;2.55;;;;;;;;;;4995414;28;20487;-72
2022/06/19 02:36:46;;;;;;;6.07;2.60;;;;;;;;;;4994252;28;20037;-73
2022/06/19 02:39:34;;;;;;;4.75;2.50;;;;;;;;;;4995239;28;20030;-73
2022/06/19 02:42:00;;;;;;;4.97;2.58;;;;;;;;;;4992392;28;20089;-65
2022/06/19 02:44:38;;;;;;;7.78;2.92;;;;;;;;;;4995229;28;20022;-67
2022/06/19 02:47:05;;;;;;;3.33;2.40;;;;;;;;;;4995346;28;20022;-67
2022/06/19 02:49:30;;;;;;;4.90;2.58;;;;;;;;;;4995217;28;20431;-70
2022/06/19 02:51:56;;;;;;;5.75;2.45;;;;;;;;;;4995173;28;20089;-70
2022/06/19 02:54:21;;;;;;;3.50;2.10;;;;;;;;;;4994864;28;20060;-71
2022/06/19 02:56:47;;;;;;;7.32;2.30;;;;;;;;;;4994857;28;20404;-71
2022/06/19 02:59:13;;;;;;;3.00;2.20;;;;;;;;;;4995131;28;20101;-70
2022/06/19 03:01:39;;;;;;;4.65;2.03;;;;;;;;;;4994975;28;20486;-70
2022/06/19 03:04:05;;;;;;;4.18;2.03;;;;;;;;;;4993556;28;20029;-73
2022/06/19 03:06:30;;;;;;;4.03;2.33;;;;;;;;;;4994969;28;20027;-69
2022/06/19 03:08:56;;;;;;;5.18;2.35;;;;;;;;;;4994492;28;20027;-72
2022/06/19 03:11:22;;;;;;;5.53;2.53;;;;;;;;;;4994655;28;20109;-73
2022/06/19 03:13:49;;;;;;;6.22;2.92;;;;;;;;;;4994728;28;20113;-70
2022/06/19 03:16:14;;;;;;;6.57;3.15;;;;;;;;;;4994387;28;20026;-73
2022/06/19 03:18:40;;;;;;;3.47;2.28;;;;;;;;;;4994349;28;20415;-67
2022/06/19 03:21:06;;;;;;;3.72;2.40;;;;;;;;;;4994449;28;20101;-73
2022/06/19 03:23:31;;;;;;;3.72;2.30;;;;;;;;;;4994290;28;20099;-73
2022/06/19 03:25:57;;;;;;;4.10;2.05;;;;;;;;;;4994442;28;20034;-73
2022/06/19 03:28:23;;;;;;;5.03;2.45;;;;;;;;;;4994435;28;20030;-72
2022/06/19 03:30:54;;;;;;;2.53;1.90;;;;;;;;;;4994325;28;20026;-73
2022/06/19 03:33:20;;;;;;;3.60;2.28;;;;;;;;;;4993479;28;20028;-68
2022/06/19 03:35:45;;;;;;;3.15;2.20;;;;;;;;;;4994338;28;20037;-73
2022/06/19 03:38:11;;;;;;;4.50;2.22;;;;;;;;;;4994053;28;20034;-71
2022/06/19 03:40:36;;;;;;;5.43;2.00;;;;;;;;;;4994295;28;20069;-68
2022/06/19 03:43:02;;;;;;;5.53;2.40;;;;;;;;;;4994161;28;20034;-72
2022/06/19 03:45:27;;;;;;;5.75;2.50;;;;;;;;;;4994226;28;20033;-73
2022/06/19 03:47:53;;;;;;;6.72;2.58;;;;;;;;;;4994063;28;20030;-70
2022/06/19 03:50:18;;;;;;;3.67;2.50;;;;;;;;;;4994058;28;20156;-72
2022/06/19 03:52:46;;;;;;;4.00;2.78;;;;;;;;;;4993575;28;20097;-71
2022/06/19 03:55:12;;;;;;;4.07;2.67;;;;;;;;;;4993932;28;20518;-70
2022/06/19 03:57:38;;;;;;;4.05;2.60;;;;;;;;;;4993851;28;20026;-69
2022/06/19 04:00:04;;;;;;;5.82;2.60;;;;;;;;;;4993875;28;20033;-72
2022/06/19 04:02:29;;;;;;;7.53;2.70;;;;;;;;;;4993797;28;20457;-73
2022/06/19 04:04:55;;;;;;;5.28;2.83;;;;;;;;;;4993792;28;20026;-72
2022/06/19 04:07:20;;;;;;;5.03;2.40;;;;;;;;;;4993650;28;20027;-68
2022/06/19 04:09:46;;;;;;;5.32;2.90;;;;;;;;;;4993854;28;20097;-73
2022/06/19 04:12:12;;;;;;;5.47;2.83;;;;;;;;;;4993747;28;20042;-71
2022/06/19 04:14:39;;;;;;;5.82;3.05;;;;;;;;;;4993681;28;20030;-72
2022/06/19 04:17:08;;;;;;;6.10;2.80;;;;;;;;;;4992104;28;20484;-72
2022/06/19 04:19:34;;;;;;;3.90;2.90;;;;;;;;;;4993719;28;20036;-69
2022/06/19 04:22:00;;;;;;;5.63;2.95;;;;;;;;;;4993240;28;20061;-67
2022/06/19 04:24:26;;;;;;;5.28;2.95;;;;;;;;;;4993595;28;20062;-69
2022/06/19 04:26:51;;;;;;;6.55;3.00;;;;;;;;;;4993585;28;20030;-67
2022/06/19 04:29:17;;;;;;;4.85;2.80;;;;;;;;;;4993548;28;20042;-68
2022/06/19 04:31:43;;;;;;;6.65;2.80;;;;;;;;;;4993436;28;20023;-71
2022/06/19 04:34:09;;;;;;;5.60;2.70;;;;;;;;;;4992172;28;20113;-65
2022/06/19 04:36:36;;;;;;;3.55;2.70;;;;;;;;;;4993150;28;20026;-69
2022/06/19 04:39:03;;;;;;;4.90;2.88;;;;;;;;;;4993504;28;20100;-72
2022/06/19 04:41:36;;;;;;;6.45;2.63;;;;;;;;;;4993366;28;20023;-68
2022/06/19 04:44:02;;;;;;;6.63;2.95;;;;;;;;;;4993482;28;20475;-72
2022/06/19 04:46:28;;;;;;;5.47;2.50;;;;;;;;;;4997504;28;20034;-70
2022/06/19 04:48:53;;;;;;;3.25;2.28;;;;;;;;;;4997326;28;20030;-72
2022/06/19 04:51:19;;;;;;;5.13;2.22;;;;;;;;;;4997062;28;20014;-72
2022/06/19 04:53:45;;;;;;;6.95;2.38;;;;;;;;;;4997154;28;20038;-69
2022/06/19 04:56:13;;;;;;;5.65;2.53;;;;;;;;;;4997248;28;20023;-71
2022/06/19 04:58:39;;;;;;;5.60;2.38;;;;;;;;;;4997126;28;20048;-71
2022/06/19 05:01:21;;;;;;;4.55;2.80;;;;;;;;;;4997201;28;20105;-72
2022/06/19 05:03:47;;;;;;;4.75;2.50;;;;;;;;;;4997073;28;20554;-68
2022/06/19 05:06:12;;;;;;;6.03;2.45;;;;;;;;;;4995587;28;20034;-69
2022/06/19 05:08:38;;;;;;;5.30;2.45;;;;;;;;;;4997011;28;20443;-73
2022/06/19 05:11:03;;;;;;;6.00;2.20;;;;;;;;;;4996968;28;20076;-65
2022/06/19 05:13:29;;;;;;;3.83;2.05;;;;;;;;;;4996927;28;20034;-65
2022/06/19 05:16:04;;;;;;;4.55;2.15;;;;;;;;;;4996857;28;20031;-64
2022/06/19 05:18:31;;;;;;;4.00;1.48;;;;;;;;;;4996131;28;20049;-65
2022/06/19 05:20:57;;;;;;;5.15;1.90;;;;;;;;;;4996763;28;20034;-71
2022/06/19 05:23:23;;;;;;;5.05;2.00;;;;;;;;;;4996764;28;20092;-71
2022/06/19 05:25:48;;;;;;;5.38;1.83;;;;;;;;;;4996870;28;20419;-72
2022/06/19 05:28:14;;;;;;;2.50;1.58;;;;;;;;;;4996926;28;20030;-72
2022/06/19 05:30:39;;;;;;;4.75;1.92;;;;;;;;;;4996608;28;20018;-72
2022/06/19 05:33:05;;;;;;;4.22;1.90;;;;;;;;;;4996337;28;20080;-64
2022/06/19 05:35:31;;;;;;;3.78;1.70;;;;;;;;;;4996574;28;20109;-65
2022/06/19 05:37:56;;;;;;;3.75;2.00;;;;;;;;;;4996273;28;20104;-70
2022/06/19 05:40:22;;;;;;;5.07;1.80;;;;;;;;;;4996554;28;20595;-69
2022/06/19 05:42:48;;;;;;;4.97;1.90;;;;;;;;;;4996323;28;20041;-72
2022/06/19 05:45:14;;;;;;;3.05;1.70;;;;;;;;;;4996432;28;20038;-65
2022/06/19 05:47:39;;;;;;;3.75;1.67;;;;;;;;;;4996045;28;20038;-71
2022/06/19 05:50:05;;;;;;;2.53;1.75;;;;;;;;;;4996252;28;20491;-72
2022/06/19 05:52:31;;;;;;;4.82;2.10;;;;;;;;;;4996204;28;20032;-72
2022/06/19 05:54:56;;;;;;;5.93;1.95;;;;;;;;;;4996210;28;20026;-72
2022/06/19 05:57:22;;;;;;;4.72;1.98;;;;;;;;;;4995214;28;20041;-71
2022/06/19 05:59:48;;;;;;;4.72;2.20;;;;;;;;;;4996210;28;20118;-72
2022/06/19 06:02:16;;;;;;;3.55;1.73;;;;;;;;;;4995762;28;20070;-69
2022/06/19 06:04:41;;;;;;;7.97;2.13;;;;;;;;;;4995965;28;20031;-72
2022/06/19 06:07:10;;;;;;;4.35;2.10;;;;;;;;;;4996020;28;20023;-72
2022/06/19 06:09:37;;;;;;;3.85;2.00;;;;;;;;;;4996050;28;20034;-73
2022/06/19 06:12:06;;;;;;;4.38;2.03;;;;;;;;;;4995649;28;20026;-73
2022/06/19 06:14:32;;;;;;;3.75;2.08;;;;;;;;;;4995858;28;20084;-73
2022/06/19 06:16:57;;;;;;;3.40;2.05;;;;;;;;;;4995376;28;20125;-71
2022/06/19 06:19:23;;;;;;;4.95;2.10;;;;;;;;;;4995766;28;20030;-67
2022/06/19 06:21:48;;;;;;;4.65;2.20;;;;;;;;;;4995690;28;20368;-72
2022/06/19 06:24:15;;;;;;;4.80;2.15;;;;;;;;;;4995749;28;20026;-65
2022/06/19 06:26:41;;;;;;;4.95;2.20;;;;;;;;;;4995741;28;20019;-72
2022/06/19 06:29:07;;;;;;;10.50;2.63;;;;;;;;;;4995799;28;20109;-73
2022/06/19 06:31:33;;;;;;;2.97;1.90;;;;;;;;;;4995211;28;20041;-68
2022/06/19 06:33:59;;;;;;;5.60;2.22;;;;;;;;;;4995350;28;20037;-68
2022/06/19 06:36:25;;;;;;;5.30;2.13;;;;;;;;;;4995493;28;20026;-65
2022/06/19 06:38:51;;;;;;;3.03;2.05;;;;;;;;;;4995353;28;20030;-69
2022/06/19 06:41:16;;;;;;;3.83;2.08;;;;;;;;;;4995282;28;20042;-71
2022/06/19 06:43:44;;;;;;;4.15;2.45;;;;;;;;;;4995303;28;20027;-72
2022/06/19 06:46:18;;;;;;;6.32;2.40;;;;;;;;;;4995071;28;20452;-72
2022/06/19 06:48:45;;;;;;;3.90;2.20;;;;;;;;;;4995213;28;20030;-72
2022/06/19 06:51:16;;;;;;;6.45;2.95;;;;;;;;;;4995134;28;20100;-71
2022/06/19 06:53:42;;;;;;;5.38;2.40;;;;;;;;;;4994975;28;20080;-69
2022/06/19 06:56:08;;;;;;;4.88;2.03;;;;;;;;;;4995142;28;20034;-70
2022/06/19 06:58:34;;;;;;;4.70;2.50;;;;;;;;;;4994910;28;20034;-66
2022/06/19 07:01:15;;;;;;;5.63;2.40;;;;;;;;;;4994719;28;20022;-71
2022/06/19 07:03:41;;;;;;;;;;;;;;;;;;4995409;28;20045;-70
2022/06/19 07:06:06;;;;;;;6.35;2.80;;;;;;;;;;4994818;28;19920;-72
2022/06/19 07:08:32;;;;;;;5.25;2.40;;;;;;;;;;4994812;28;20030;-65
2022/06/19 07:10:58;;;;;;;4.63;2.30;;;;;;;;;;4994846;28;20400;-73
2022/06/19 07:13:23;;;;;;;3.38;2.25;;;;;;;;;;4994667;28;20058;-71
2022/06/19 07:15:53;;;;;;;3.95;2.30;;;;;;;;;;4994449;28;20101;-72
2022/06/19 07:18:19;;;;;;;3.77;2.20;;;;;;;;;;4994227;28;20051;-71
2022/06/19 07:20:45;;;;;;;3.40;2.00;;;;;;;;;;4994253;28;20275;-71
2022/06/19 07:23:11;;;;;;;5.43;2.50;;;;;;;;;;4994637;28;20018;-73
2022/06/19 07:25:37;;;;;;;5.32;2.90;;;;;;;;;;4994383;28;20469;-69
2022/06/19 07:28:03;;;;;;;4.88;2.60;;;;;;;;;;4994562;28;20022;-71
2022/06/19 07:30:29;;;;;;;8.70;3.17;;;;;;;;;;4994159;28;20065;-70
2022/06/19 07:32:56;;;;;;;4.72;2.45;;;;;;;;;;4994354;28;20018;-69
2022/06/19 07:35:23;;;;;;;4.15;2.50;;;;;;;;;;4994269;28;20026;-72
2022/06/19 07:37:51;;;;;;;6.45;2.40;;;;;;;;;;4992741;28;20072;-67
2022/06/19 07:40:19;;;;;;;5.28;2.50;;;;;;;;;;4994086;28;20053;-72
2022/06/19 07:42:45;;;;;;;4.32;2.40;;;;;;;;;;4993968;28;20028;-71
2022/06/19 07:45:12;;;;;;;4.90;2.22;;;;;;;;;;4993949;28;20117;-68
2022/06/19 07:50:23;;;;;;;4.70;2.35;;;;;;;;;;4994150;28;20057;-69
2022/06/19 07:52:50;;;;;;;3.05;2.05;;;;;;;;;;4993957;28;20026;-72
2022/06/19 07:55:25;;;;;;;4.75;2.13;;;;;;;;;;4993475;28;20065;-71
2022/06/19 07:57:51;;;;;;;5.32;2.17;;;;;;;;;;4993588;28;20120;-71
2022/06/19 08:00:26;;;;;;;4.97;2.30;;;;;;;;;;4993918;28;20037;-71
2022/06/19 08:02:53;;;;;;;4.75;2.15;;;;;;;;;;4993711;28;20060;-71
2022/06/19 08:05:21;;;;;;;7.63;2.38;;;;;;;;;;4993656;28;20464;-70
2022/06/19 08:07:47;;;;;;;6.80;2.40;;;;;;;;;;4993690;28;20103;-71
2022/06/19 08:10:20;;;;;;;3.58;2.47;;;;;;;;;;4993631;28;20181;-70
2022/06/19 08:12:46;;;;;;;5.50;2.60;;;;;;;;;;4993238;28;20031;-72
2022/06/19 08:15:13;;;;;;;5.30;2.42;;;;;;;;;;4993586;28;20040;-72
2022/06/19 08:17:38;;;;;;;4.32;2.53;;;;;;;;;;4993093;28;20042;-71
2022/06/19 08:20:06;;;;;;;5.18;2.80;;;;;;;;;;4992887;28;20069;-70
2022/06/19 08:22:32;;;;;;;6.03;2.40;;;;;;;;;;4993428;28;20066;-68
2022/06/19 08:24:57;;;;;;;4.15;2.10;;;;;;;;;;4993469;28;20065;-71
2022/06/19 08:27:23;;;;;;;6.68;2.78;;;;;;;;;;4993248;28;20096;-69
2022/06/19 08:29:48;;;;;;;3.78;2.17;;;;;;;;;;4993622;28;20062;-70
2022/06/19 08:32:14;;;;;;;3.97;2.35;;;;;;;;;;4993034;28;20093;-68
2022/06/19 08:34:39;;;;;;;6.68;2.42;;;;;;;;;;4993461;28;20026;-71
2022/06/19 08:37:07;;;;;;;4.93;2.20;;;;;;;;;;4993385;28;20033;-71
2022/06/19 08:39:33;;;;;;;5.95;2.70;;;;;;;;;;4991906;28;20031;-68
2022/06/19 08:42:23;;;;;;;5.13;2.47;;;;;;;;;;4993030;28;20031;-69
2022/06/19 08:44:52;;;;;;;5.82;2.67;;;;;;;;;;4993365;28;20035;-71
2022/06/19 08:47:41;;;;;;;5.85;2.80;;;;;;;;;;4993267;28;20499;-67
2022/06/19 08:50:31;;;;;;;6.85;2.50;;;;;;;;;;4993397;28;20121;-70
2022/06/19 08:53:22;;;;;;;6.30;2.97;;;;;;;;;;4993424;28;20027;-66
2022/06/19 08:56:12;;;;;;;6.32;2.75;;;;;;;;;;4993318;28;20026;-67
2022/06/19 08:58:55;;;;;;;6.68;2.80;;;;;;;;;;4993322;28;20034;-69
2022/06/19 09:01:37;;;;;;;6.97;2.70;;;;;;;;;;4993318;28;20031;-64
2022/06/19 09:07:02;;;;;;;7.45;2.90;;;;;;;;;;4993063;28;20061;-69
2022/06/19 09:09:52;;;;;;;6.38;2.90;;;;;;;;;;4993056;28;20034;-71
2022/06/19 09:12:49;;;;;;;5.78;2.25;;;;;;;;;;4992971;28;20037;-71
2022/06/19 09:15:17;;;;;;;5.72;2.80;;;;;;;;;;4992927;28;20056;-72
2022/06/19 09:18:00;;;;;;;8.15;2.75;;;;;;;;;;4992800;28;20133;-68
2022/06/19 09:20:40;;;;;;;5.57;2.50;;;;;;;;;;4993023;28;20030;-70
2022/06/19 09:23:10;;;;;;;;;;;;;;;;;;4993496;28;20080;-71
2022/06/19 09:25:44;;;;;;;7.28;2.85;;;;;;;;;;4992742;28;20370;-72
2022/06/19 09:28:25;;;;;;;7.28;2.95;;;;;;;;;;4992941;28;20026;-70
2022/06/19 09:30:59;;;;;;;8.43;3.03;;;;;;;;;;4992900;28;20041;-72
2022/06/19 09:33:34;;;;;;;6.88;2.80;;;;;;;;;;4996538;28;20026;-71
2022/06/19 09:36:07;;;;;;;7.88;3.00;;;;;;;;;;4995478;28;20030;-71
2022/06/19 09:38:45;;;;;;;7.05;2.97;;;;;;;;;;4996670;28;20038;-71
2022/06/19 09:41:21;;;;;;;6.88;2.83;;;;;;;;;;4996248;28;20027;-69
2022/06/19 09:44:01;;;;;;;10.63;3.38;;;;;;;;;;4996498;28;20377;-70
2022/06/19 09:46:37;;;;;;;8.80;3.10;;;;;;;;;;4996514;28;20030;-69
2022/06/19 09:49:16;;;;;;;13.25;3.40;;;;;;;;;;4996338;28;20027;-71
2022/06/19 09:52:05;;;;;;;7.18;3.05;;;;;;;;;;4996366;28;20109;-70
2022/06/19 09:54:42;;;;;;;6.60;2.95;;;;;;;;;;4995922;28;20027;-71
2022/06/19 09:57:15;;;;;;;11.43;3.75;;;;;;;;;;4996197;28;20030;-71
2022/06/19 10:00:07;;;;;;;9.48;3.50;;;;;;;;;;4996290;28;20077;-72
2022/06/19 10:02:54;;;;;;;6.22;3.25;;;;;;;;;;4996103;28;20113;-71
2022/06/19 10:05:32;;;;;;;7.95;3.75;;;;;;;;;;4996108;28;20037;-72
2022/06/19 10:08:13;;;;;;;13.80;3.50;;;;;;;;;;4996040;28;20104;-72
2022/06/19 10:10:41;;;;;;;6.85;3.25;;;;;;;;;;4995852;28;20030;-71
2022/06/19 10:13:28;;;;;;;7.40;3.17;;;;;;;;;;4995915;28;20121;-72
2022/06/19 10:15:55;;;;;;;8.18;3.30;;;;;;;;;;4995937;28;20029;-71
2022/06/19 10:18:26;;;;;;;14.15;3.35;;;;;;;;;;4995471;28;20470;-72
2022/06/19 10:22:13;;;;;;;7.70;3.05;;;;;;;;;;4995722;28;20049;-72
2022/06/19 10:24:29;;;;;;;7.35;2.90;;;;;;;;;;4995298;28;20045;-72
2022/06/19 10:27:15;;;;;;;8.82;3.53;;;;;;;;;;4995781;28;20030;-72
2022/06/19 10:30:07;;;;;;;9.88;4.20;;;;;;;;;;4994662;28;20037;-71
2022/06/19 10:32:59;;;;;;;10.68;3.60;;;;;;;;;;4995501;28;20062;-72
2022/06/19 10:35:31;;;;;;;13.65;3.50;;;;;;;;;;4995271;28;20083;-71
2022/06/19 10:38:15;;;;;;;5.63;2.60;;;;;;;;;;4995155;28;20018;-71
2022/06/19 10:40:55;;;;;;;4.18;2.20;;;;;;;;;;4995430;28;20026;-72
2022/06/19 10:43:55;;;;;;;6.03;2.20;;;;;;;;;;4994662;28;20133;-72
2022/06/19 10:46:24;;;;;;;8.30;2.88;;;;;;;;;;4995324;28;20026;-73
2022/06/19 10:49:36;;;;;;;7.38;2.28;;;;;;;;;;4995317;28;20492;-73
2022/06/19 10:52:21;;;;;;;8.90;2.58;;;;;;;;;;4973229;28;20066;-72
2022/06/19 10:55:17;;;;;;;7.20;2.60;;;;;;;;;;4973617;28;20035;-72
2022/06/19 10:57:50;;;;;;;6.80;2.67;;;;;;;;;;4973898;28;20409;-72
2022/06/19 11:00:16;;;;;;;8.00;2.55;;;;;;;;;;4957229;28;20027;-72
2022/06/19 11:05:48;;;;;;;5.40;2.30;;;;;;;;;;4973541;28;20211;-73
2022/06/19 11:08:15;;;;;;;6.18;2.55;;;;;;;;;;4973199;28;20035;-72
2022/06/19 11:10:44;;;;;;;6.32;2.80;;;;;;;;;;4973102;28;20039;-73
2022/06/19 11:13:12;;;;;;;5.75;2.30;;;;;;;;;;4973131;28;20488;-72
2022/06/19 11:15:44;;;;;;;7.88;2.75;;;;;;;;;;4973286;28;20053;-72
2022/06/19 11:18:16;;;;;;;7.93;2.42;;;;;;;;;;4972735;28;20126;-73
2022/06/19 11:21:03;;;;;;;9.45;2.70;;;;;;;;;;4973027;28;20030;-72
2022/06/19 11:23:39;;;;;;;5.22;2.55;;;;;;;;;;4973082;28;20097;-72
2022/06/19 11:26:16;;;;;;;6.07;2.42;;;;;;;;;;4972984;28;20274;-73
2022/06/19 11:28:50;;;;;;;6.85;2.47;;;;;;;;;;4980860;28;20038;-73
2022/06/19 11:31:24;;;;;;;10.20;3.10;;;;;;;;;;4994340;28;20029;-72
2022/06/19 11:34:43;;;;;;;12.40;3.38;;;;;;;;;;4994312;28;20121;-73
2022/06/19 11:37:16;;;;;;;7.32;3.42;;;;;;;;;;4993956;28;20464;-73
2022/06/19 11:40:08;;;;;;;12.80;4.68;;;;;;;;;;4994311;28;20487;-73
2022/06/19 11:42:53;;;;;;;10.90;3.95;;;;;;;;;;4994283;28;20026;-70
2022/06/19 11:45:19;;;;;;;10.77;3.92;;;;;;;;;;4994166;28;20030;-71
2022/06/19 11:47:46;;;;;;;16.50;3.85;;;;;;;;;;4994241;28;20076;-69
2022/06/19 11:50:11;;;;;;;14.80;4.00;;;;;;;;;;4993878;28;20030;-68
2022/06/19 11:52:44;;;;;;;9.07;3.22;;;;;;;;;;4994040;28;20049;-68
2022/06/19 11:55:31;;;;;;;12.70;3.63;;;;;;;;;;4993517;28;20062;-68
2022/06/19 11:58:12;;;;;;;13.57;2.72;;;;;;;;;;4994050;28;20041;-72
2022/06/19 12:00:37;;;;;;;20.48;3.58;;;;;;;;;;4994156;28;20034;-74
2022/06/19 12:03:31;;;;;;;11.23;2.47;;;;;;;;;;4993998;28;20043;-67
2022/06/19 12:06:07;;;;;;;7.53;2.30;;;;;;;;;;4971950;28;20544;-73
2022/06/19 12:08:37;;;;;;;8.82;2.10;;;;;;;;;;4972220;28;20049;-73
2022/06/19 12:11:07;;;;;;;10.27;2.30;;;;;;;;;;4972364;28;20046;-71
2022/06/19 12:13:39;;;;;;;7.28;2.00;;;;;;;;;;4972105;28;20101;-71
2022/06/19 12:16:20;;;;;;;10.10;2.63;;;;;;;;;;4971887;28;20039;-71
2022/06/19 12:18:45;;;;;;;10.00;2.90;;;;;;;;;;4971917;28;20504;-72
2022/06/19 12:21:20;;;;;;;18.88;2.65;;;;;;;;;;4971536;28;20073;-72
2022/06/19 12:24:12;;;;;;;5.95;2.10;;;;;;;;;;4955950;28;20465;-69
2022/06/19 12:27:00;;;;;;;9.05;2.20;;;;;;;;;;4967863;28;20042;-68
2022/06/19 12:29:54;;;;;;;8.70;2.53;;;;;;;;;;4972048;28;20042;-73
2022/06/19 12:32:30;;;;;;;7.88;2.28;;;;;;;;;;4972227;28;20062;-71
2022/06/19 12:35:01;;;;;;;8.80;2.15;;;;;;;;;;4971635;28;20047;-72
2022/06/19 12:37:29;;;;;;;7.60;2.17;;;;;;;;;;4955869;28;20093;-72
2022/06/19 12:39:55;;;;;;;7.38;2.30;;;;;;;;;;4971933;28;20027;-72
2022/06/19 12:42:47;;;;;;;9.95;2.65;;;;;;;;;;4963504;28;20043;-73
2022/06/19 12:45:31;;;;;;;10.80;2.42;;;;;;;;;;4993295;28;20062;-69
2022/06/19 12:48:18;;;;;;;9.40;2.35;;;;;;;;;;4993303;28;20030;-69
2022/06/19 12:51:19;;;;;;;7.78;2.25;;;;;;;;;;4992191;28;20035;-72
2022/06/19 12:54:12;;;;;;;8.13;2.30;;;;;;;;;;4971700;28;20164;-73
2022/06/19 12:57:07;;;;;;;12.10;2.50;;;;;;;;;;4971771;28;20038;-73
2022/06/19 12:59:47;;;;;;;8.80;2.35;;;;;;;;;;4971926;28;20046;-70
2022/06/19 13:02:35;;;;;;;7.68;2.03;;;;;;;;;;4971675;28;20035;-73
2022/06/19 13:05:18;;;;;;;5.22;1.75;;;;;;;;;;4933283;29;20179;-71
2022/06/19 13:08:12;;;;;;;8.27;2.30;;;;;;;;;;4937069;29;20086;-72
2022/06/19 13:11:23;;;;;;;8.43;2.00;;;;;;;;;;4936930;29;20119;-72
2022/06/19 13:14:25;;;;;;;11.07;2.13;;;;;;;;;;4899007;29;20036;-71
2022/06/19 13:17:20;;;;;;;10.43;3.10;;;;;;;;;;4898372;29;20119;-70
2022/06/19 13:19:45;;;;;;;7.43;1.77;;;;;;;;;;4895296;29;20115;-73
2022/06/19 13:22:30;;;;;;;8.50;2.50;;;;;;;;;;4898994;29;20116;-72
2022/06/19 13:25:03;;;;;;;12.88;2.25;;;;;;;;;;4898844;29;20076;-72
2022/06/19 13:28:01;;;;;;;13.35;2.50;;;;;;;;;;4898882;29;20039;-67
2022/06/19 13:30:59;;;;;;;9.95;2.03;;;;;;;;;;4890344;29;20124;-72
2022/06/19 13:33:48;;;;;;;11.13;2.30;;;;;;;;;;4861134;29;20048;-71
2022/06/19 13:36:26;;;;;;;13.38;2.20;;;;;;;;;;4861453;29;20094;-72
2022/06/19 13:39:28;;;;;;;12.18;2.42;;;;;;;;;;4861507;29;20033;-68
2022/06/19 13:42:22;;;;;;;9.75;2.30;;;;;;;;;;4840503;29;20103;-72
2022/06/19 13:45:00;;;;;;;10.07;2.45;;;;;;;;;;4868571;29;20139;-70
2022/06/19 13:47:47;;;;;;;12.45;1.92;;;;;;;;;;4879566;29;20048;-65
2022/06/19 13:50:15;;;;;;;8.00;1.70;;;;;;;;;;4879762;29;20324;-66
2022/06/19 13:53:03;;;;;;;10.63;2.20;;;;;;;;;;4879500;29;20538;-73
2022/06/19 13:55:37;;;;;;;16.50;2.80;;;;;;;;;;4879709;29;20102;-72
2022/06/19 13:58:27;;;;;;;10.90;1.88;;;;;;;;;;4879668;29;20146;-73
2022/06/19 14:01:11;;;;;;;13.65;2.85;;;;;;;;;;4879548;29;20123;-72
2022/06/19 14:06:55;;;;;;;10.00;1.98;;;;;;;;;;4879741;29;20036;-72
2022/06/19 14:09:36;;;;;;;11.70;2.33;;;;;;;;;;4915860;29;20119;-72
2022/06/19 14:12:06;;;;;;;13.93;2.78;;;;;;;;;;4935778;29;20102;-72
2022/06/19 14:14:39;;;;;;;15.95;2.65;;;;;;;;;;4936027;29;20187;-73
2022/06/19 14:17:28;;;;;;;11.20;2.40;;;;;;;;;;4937966;28;20421;-72
2022/06/19 14:20:12;;;;;;;13.77;2.28;;;;;;;;;;4992711;28;20038;-73
2022/06/19 14:23:06;;;;;;;10.38;2.30;;;;;;;;;;4995652;28;20042;-73
2022/06/19 14:25:47;;;;;;;11.88;1.90;;;;;;;;;;4993006;28;20093;-73
2022/06/19 14:28:22;;;;;;;9.70;2.03;;;;;;;;;;4995806;28;20030;-71
2022/06/19 14:30:54;;;;;;;11.93;2.42;;;;;;;;;;4995190;28;20031;-72
2022/06/19 14:33:40;;;;;;;6.20;1.85;;;;;;;;;;4995604;28;20117;-71
2022/06/19 14:36:11;;;;;;;7.32;1.80;;;;;;;;;;4995610;28;20030;-72
2022/06/19 14:38:38;;;;;;;7.60;1.80;;;;;;;;;;4995300;28;20031;-72
2022/06/19 14:41:13;;;;;;;8.05;1.83;;;;;;;;;;4995390;28;20509;-72
2022/06/19 14:43:44;;;;;;;7.68;1.90;;;;;;;;;;4995488;28;20030;-71
2022/06/19 14:46:23;;;;;;;6.40;1.70;;;;;;;;;;4995222;28;20030;-71
2022/06/19 14:48:55;;;;;;;8.13;1.73;;;;;;;;;;4995405;28;20114;-72
2022/06/19 14:51:35;;;;;;;9.65;2.20;;;;;;;;;;4995116;28;20113;-70
2022/06/19 14:54:23;;;;;;;9.90;2.20;;;;;;;;;;4995084;28;20384;-71
2022/06/19 14:57:07;;;;;;;8.00;1.60;;;;;;;;;;4994992;28;20161;-71
2022/06/19 15:00:01;;;;;;;11.23;2.72;;;;;;;;;;4994616;28;20161;-70
2022/06/19 15:02:46;;;;;;;8.98;1.80;;;;;;;;;;4995012;28;20026;-72
2022/06/19 15:05:35;;;;;;;8.07;1.80;;;;;;;;;;4994900;28;20038;-72
2022/06/19 15:08:15;;;;;;;5.78;1.80;;;;;;;;;;4994804;28;20419;-72
2022/06/19 15:10:52;;;;;;;;;;;;;;;;;;4995176;28;20022;-71
2022/06/19 15:13:46;;;;;;;12.85;2.60;;;;;;;;;;4994616;28;19913;-72
2022/06/19 15:16:21;;;;;;;8.10;1.98;;;;;;;;;;4993709;28;20070;-72
2022/06/19 15:19:00;;;;;;;11.82;2.13;;;;;;;;;;4994509;28;20437;-72
2022/06/19 15:21:54;;;;;;;10.23;2.13;;;;;;;;;;4994451;28;20092;-72
2022/06/19 15:24:45;;;;;;;8.13;2.20;;;;;;;;;;4994552;28;20109;-72
2022/06/19 15:27:25;;;;;;;6.40;2.40;;;;;;;;;;4994492;28;20494;-72
2022/06/19 15:29:56;;;;;;;8.80;2.22;;;;;;;;;;4993173;28;20026;-72